sensor_id;sensor_type;location;lat;lon;timestamp;temperature;humidity
66312;HTU21D;53114;51.138;6.008;2022-10-18T00:01:15;16.40;118.99
66312;HTU21D;53114;51.138;6.008;2022-10-18T00:03:41;16.34;118.99
66312;HTU21D;53114;51.138;6.008;2022-10-18T00:06:07;16.30;118.99
66312;HTU21D;53114;51.138;6.008;2022-10-18T00:08:35;16.27;118.99
66312;HTU21D;53114;51.138;6.008;2022-10-18T00:11:01;16.28;118.99
66312;HTU21D;53114;51.138;6.008;2022-10-18T00:13:27;16.28;118.99
66312;HTU21D;53114;51.138;6.008;2022-10-18T00:15:56;16.35;118.99
66312;HTU21D;53114;51.138;6.008;2022-10-18T00:18:23;16.39;118.99
66312;HTU21D;53114;51.138;6.008;2022-10-18T00:21:09;16.43;118.99
66312;HTU21D;53114;51.138;6.008;2022-10-18T00:23:36;16.44;118.99
66312;HTU21D;53114;51.138;6.008;2022-10-18T00:26:18;16.36;118.99
66312;HTU21D;53114;51.138;6.008;2022-10-18T00:28:45;16.30;118.99
66312;HTU21D;53114;51.138;6.008;2022-10-18T00:31:17;16.27;118.99
66312;HTU21D;53114;51.138;6.008;2022-10-18T00:33:45;16.24;118.99
66312;HTU21D;53114;51.138;6.008;2022-10-18T00:36:13;16.22;118.99
66312;HTU21D;53114;51.138;6.008;2022-10-18T00:38:39;16.21;118.99
66312;HTU21D;53114;51.138;6.008;2022-10-18T00:41:08;16.22;118.99
66312;HTU21D;53114;51.138;6.008;2022-10-18T00:43:56;16.25;118.99
66312;HTU21D;53114;51.138;6.008;2022-10-18T00:46:23;16.31;118.99
66312;HTU21D;53114;51.138;6.008;2022-10-18T00:48:51;16.31;118.99
66312;HTU21D;53114;51.138;6.008;2022-10-18T00:51:20;16.33;118.99
66312;HTU21D;53114;51.138;6.008;2022-10-18T00:53:47;16.34;118.99
66312;HTU21D;53114;51.138;6.008;2022-10-18T00:56:13;16.36;118.99
66312;HTU21D;53114;51.138;6.008;2022-10-18T00:58:41;16.37;118.99
66312;HTU21D;53114;51.138;6.008;2022-10-18T01:01:07;16.40;118.99
66312;HTU21D;53114;51.138;6.008;2022-10-18T01:03:35;16.42;118.99
66312;HTU21D;53114;51.138;6.008;2022-10-18T01:06:02;16.40;118.99
66312;HTU21D;53114;51.138;6.008;2022-10-18T01:11:54;16.33;118.99
66312;HTU21D;53114;51.138;6.008;2022-10-18T01:14:53;16.36;118.99
66312;HTU21D;53114;51.138;6.008;2022-10-18T01:31:40;16.27;118.99
66312;HTU21D;53114;51.138;6.008;2022-10-18T01:34:13;16.25;118.99
66312;HTU21D;53114;51.138;6.008;2022-10-18T01:36:47;16.21;118.99
66312;HTU21D;53114;51.138;6.008;2022-10-18T01:39:21;16.20;118.99
66312;HTU21D;53114;51.138;6.008;2022-10-18T01:41:50;16.19;118.99
66312;HTU21D;53114;51.138;6.008;2022-10-18T01:44:22;16.18;118.99
66312;HTU21D;53114;51.138;6.008;2022-10-18T01:46:52;16.15;118.99
66312;HTU21D;53114;51.138;6.008;2022-10-18T01:49:19;16.12;118.99
66312;HTU21D;53114;51.138;6.008;2022-10-18T01:51:45;16.13;118.99
66312;HTU21D;53114;51.138;6.008;2022-10-18T01:54:49;16.14;118.99
66312;HTU21D;53114;51.138;6.008;2022-10-18T02:02:51;16.14;118.99
66312;HTU21D;53114;51.138;6.008;2022-10-18T02:05:38;16.18;118.99
66312;HTU21D;53114;51.138;6.008;2022-10-18T02:08:24;16.21;118.99
66312;HTU21D;53114;51.138;6.008;2022-10-18T02:10:57;16.26;118.99
66312;HTU21D;53114;51.138;6.008;2022-10-18T02:13:29;16.28;118.99
66312;HTU21D;53114;51.138;6.008;2022-10-18T02:16:04;16.26;118.99
66312;HTU21D;53114;51.138;6.008;2022-10-18T02:18:47;16.27;118.99
66312;HTU21D;53114;51.138;6.008;2022-10-18T02:21:18;16.20;118.99
66312;HTU21D;53114;51.138;6.008;2022-10-18T02:23:45;16.11;118.99
66312;HTU21D;53114;51.138;6.008;2022-10-18T02:26:13;16.04;118.99
66312;HTU21D;53114;51.138;6.008;2022-10-18T02:28:43;16.01;118.99
66312;HTU21D;53114;51.138;6.008;2022-10-18T02:36:17;15.80;118.99
66312;HTU21D;53114;51.138;6.008;2022-10-18T02:38:45;15.77;118.99
66312;HTU21D;53114;51.138;6.008;2022-10-18T02:41:12;15.80;118.99
66312;HTU21D;53114;51.138;6.008;2022-10-18T02:43:46;15.85;118.99
66312;HTU21D;53114;51.138;6.008;2022-10-18T02:46:12;15.85;118.99
66312;HTU21D;53114;51.138;6.008;2022-10-18T02:48:38;15.84;118.99
66312;HTU21D;53114;51.138;6.008;2022-10-18T02:51:03;15.85;118.99
66312;HTU21D;53114;51.138;6.008;2022-10-18T02:53:29;15.84;118.99
66312;HTU21D;53114;51.138;6.008;2022-10-18T02:55:55;15.87;118.99
66312;HTU21D;53114;51.138;6.008;2022-10-18T02:58:21;15.91;118.99
66312;HTU21D;53114;51.138;6.008;2022-10-18T03:00:48;15.92;118.99
66312;HTU21D;53114;51.138;6.008;2022-10-18T03:03:15;15.96;118.99
66312;HTU21D;53114;51.138;6.008;2022-10-18T03:05:41;15.98;118.99
66312;HTU21D;53114;51.138;6.008;2022-10-18T03:08:06;16.02;118.99
66312;HTU21D;53114;51.138;6.008;2022-10-18T03:10:32;16.02;118.99
66312;HTU21D;53114;51.138;6.008;2022-10-18T03:12:58;15.96;118.99
66312;HTU21D;53114;51.138;6.008;2022-10-18T03:15:24;15.88;118.99
66312;HTU21D;53114;51.138;6.008;2022-10-18T03:17:53;15.88;118.99
66312;HTU21D;53114;51.138;6.008;2022-10-18T03:20:18;15.90;118.99
66312;HTU21D;53114;51.138;6.008;2022-10-18T03:22:44;15.91;118.99
66312;HTU21D;53114;51.138;6.008;2022-10-18T03:25:10;15.96;118.99
66312;HTU21D;53114;51.138;6.008;2022-10-18T03:27:36;16.02;118.99
66312;HTU21D;53114;51.138;6.008;2022-10-18T03:30:02;16.06;118.99
66312;HTU21D;53114;51.138;6.008;2022-10-18T03:32:30;16.04;118.99
66312;HTU21D;53114;51.138;6.008;2022-10-18T03:34:56;16.07;118.99
66312;HTU21D;53114;51.138;6.008;2022-10-18T03:37:22;16.11;118.99
66312;HTU21D;53114;51.138;6.008;2022-10-18T03:39:47;16.18;118.99
66312;HTU21D;53114;51.138;6.008;2022-10-18T03:42:13;16.24;118.99
66312;HTU21D;53114;51.138;6.008;2022-10-18T03:44:39;16.26;118.99
66312;HTU21D;53114;51.138;6.008;2022-10-18T03:47:05;16.25;118.99
66312;HTU21D;53114;51.138;6.008;2022-10-18T03:49:31;16.27;118.99
66312;HTU21D;53114;51.138;6.008;2022-10-18T03:51:57;16.27;118.99
66312;HTU21D;53114;51.138;6.008;2022-10-18T03:54:23;16.24;118.99
66312;HTU21D;53114;51.138;6.008;2022-10-18T03:56:49;16.20;118.99
66312;HTU21D;53114;51.138;6.008;2022-10-18T03:59:14;16.17;118.99
66312;HTU21D;53114;51.138;6.008;2022-10-18T04:01:47;16.19;118.99
66312;HTU21D;53114;51.138;6.008;2022-10-18T04:04:13;16.19;118.99
66312;HTU21D;53114;51.138;6.008;2022-10-18T04:06:39;16.22;118.99
66312;HTU21D;53114;51.138;6.008;2022-10-18T04:09:06;16.26;118.99
66312;HTU21D;53114;51.138;6.008;2022-10-18T04:11:32;16.28;118.99
66312;HTU21D;53114;51.138;6.008;2022-10-18T04:13:58;16.24;118.99
66312;HTU21D;53114;51.138;6.008;2022-10-18T04:16:24;16.17;118.99
66312;HTU21D;53114;51.138;6.008;2022-10-18T04:18:50;16.13;118.99
66312;HTU21D;53114;51.138;6.008;2022-10-18T04:21:16;16.11;118.99
66312;HTU21D;53114;51.138;6.008;2022-10-18T04:23:42;16.07;118.99
66312;HTU21D;53114;51.138;6.008;2022-10-18T04:26:08;16.07;118.99
66312;HTU21D;53114;51.138;6.008;2022-10-18T04:28:34;16.10;118.99
66312;HTU21D;53114;51.138;6.008;2022-10-18T04:31:05;16.06;118.99
66312;HTU21D;53114;51.138;6.008;2022-10-18T04:33:31;16.06;118.99
66312;HTU21D;53114;51.138;6.008;2022-10-18T04:35:57;16.07;118.99
66312;HTU21D;53114;51.138;6.008;2022-10-18T04:38:23;16.10;118.99
66312;HTU21D;53114;51.138;6.008;2022-10-18T04:40:49;16.14;118.99
66312;HTU21D;53114;51.138;6.008;2022-10-18T04:43:15;16.16;118.99
66312;HTU21D;53114;51.138;6.008;2022-10-18T04:45:41;16.15;118.99
66312;HTU21D;53114;51.138;6.008;2022-10-18T04:48:08;16.14;118.99
66312;HTU21D;53114;51.138;6.008;2022-10-18T04:50:35;16.16;118.99
66312;HTU21D;53114;51.138;6.008;2022-10-18T04:53:12;16.16;118.99
66312;HTU21D;53114;51.138;6.008;2022-10-18T04:55:38;16.12;118.99
66312;HTU21D;53114;51.138;6.008;2022-10-18T04:58:04;16.03;118.99
66312;HTU21D;53114;51.138;6.008;2022-10-18T05:00:30;15.95;118.99
66312;HTU21D;53114;51.138;6.008;2022-10-18T05:02:56;15.90;118.99
66312;HTU21D;53114;51.138;6.008;2022-10-18T05:05:23;15.93;118.99
66312;HTU21D;53114;51.138;6.008;2022-10-18T05:07:48;15.93;118.99
66312;HTU21D;53114;51.138;6.008;2022-10-18T05:10:14;15.96;118.99
66312;HTU21D;53114;51.138;6.008;2022-10-18T05:12:40;15.96;118.99
66312;HTU21D;53114;51.138;6.008;2022-10-18T05:15:08;15.89;118.99
66312;HTU21D;53114;51.138;6.008;2022-10-18T05:17:34;15.86;118.99
66312;HTU21D;53114;51.138;6.008;2022-10-18T05:20:01;15.81;118.99
66312;HTU21D;53114;51.138;6.008;2022-10-18T05:22:27;15.71;118.99
66312;HTU21D;53114;51.138;6.008;2022-10-18T05:24:53;15.66;118.99
66312;HTU21D;53114;51.138;6.008;2022-10-18T05:27:19;15.69;118.99
66312;HTU21D;53114;51.138;6.008;2022-10-18T05:29:44;15.68;118.99
66312;HTU21D;53114;51.138;6.008;2022-10-18T05:32:10;15.65;118.99
66312;HTU21D;53114;51.138;6.008;2022-10-18T05:34:36;15.60;118.99
66312;HTU21D;53114;51.138;6.008;2022-10-18T05:37:02;15.60;118.99
66312;HTU21D;53114;51.138;6.008;2022-10-18T05:39:28;15.57;118.99
66312;HTU21D;53114;51.138;6.008;2022-10-18T05:41:54;15.63;118.99
66312;HTU21D;53114;51.138;6.008;2022-10-18T05:44:20;15.69;118.99
66312;HTU21D;53114;51.138;6.008;2022-10-18T05:46:46;15.72;118.99
66312;HTU21D;53114;51.138;6.008;2022-10-18T05:49:12;15.78;118.99
66312;HTU21D;53114;51.138;6.008;2022-10-18T05:51:39;15.86;118.99
66312;HTU21D;53114;51.138;6.008;2022-10-18T05:54:05;15.96;118.99
66312;HTU21D;53114;51.138;6.008;2022-10-18T05:56:31;16.04;118.99
66312;HTU21D;53114;51.138;6.008;2022-10-18T05:58:57;16.12;118.99
66312;HTU21D;53114;51.138;6.008;2022-10-18T06:01:23;16.13;118.99
66312;HTU21D;53114;51.138;6.008;2022-10-18T06:03:49;16.11;118.99
66312;HTU21D;53114;51.138;6.008;2022-10-18T06:06:15;16.14;118.99
66312;HTU21D;53114;51.138;6.008;2022-10-18T06:08:42;16.20;118.99
66312;HTU21D;53114;51.138;6.008;2022-10-18T06:11:11;16.25;118.99
66312;HTU21D;53114;51.138;6.008;2022-10-18T06:13:46;16.28;118.99
66312;HTU21D;53114;51.138;6.008;2022-10-18T06:16:14;16.29;118.99
66312;HTU21D;53114;51.138;6.008;2022-10-18T06:18:40;16.33;118.99
66312;HTU21D;53114;51.138;6.008;2022-10-18T06:21:07;16.39;118.99
66312;HTU21D;53114;51.138;6.008;2022-10-18T06:23:34;16.43;118.99
66312;HTU21D;53114;51.138;6.008;2022-10-18T06:26:05;16.46;118.99
66312;HTU21D;53114;51.138;6.008;2022-10-18T06:28:33;16.50;118.99
66312;HTU21D;53114;51.138;6.008;2022-10-18T06:31:00;16.50;118.99
66312;HTU21D;53114;51.138;6.008;2022-10-18T06:33:26;16.54;118.99
66312;HTU21D;53114;51.138;6.008;2022-10-18T06:36:04;16.55;118.99
66312;HTU21D;53114;51.138;6.008;2022-10-18T06:38:32;16.54;118.99
66312;HTU21D;53114;51.138;6.008;2022-10-18T06:40:58;16.54;118.99
66312;HTU21D;53114;51.138;6.008;2022-10-18T06:43:25;16.57;118.99
66312;HTU21D;53114;51.138;6.008;2022-10-18T06:45:52;16.58;118.99
66312;HTU21D;53114;51.138;6.008;2022-10-18T06:48:18;16.59;118.99
66312;HTU21D;53114;51.138;6.008;2022-10-18T06:50:56;16.62;118.99
66312;HTU21D;53114;51.138;6.008;2022-10-18T06:53:26;16.66;118.99
66312;HTU21D;53114;51.138;6.008;2022-10-18T06:55:58;16.65;118.99
66312;HTU21D;53114;51.138;6.008;2022-10-18T06:58:24;16.64;118.99
66312;HTU21D;53114;51.138;6.008;2022-10-18T07:00:50;16.55;118.99
66312;HTU21D;53114;51.138;6.008;2022-10-18T07:03:16;16.46;118.99
66312;HTU21D;53114;51.138;6.008;2022-10-18T07:05:42;16.47;118.99
66312;HTU21D;53114;51.138;6.008;2022-10-18T07:08:07;16.57;118.99
66312;HTU21D;53114;51.138;6.008;2022-10-18T07:10:34;16.64;118.99
66312;HTU21D;53114;51.138;6.008;2022-10-18T07:12:59;16.73;118.99
66312;HTU21D;53114;51.138;6.008;2022-10-18T07:15:25;16.79;118.99
66312;HTU21D;53114;51.138;6.008;2022-10-18T07:17:51;16.87;118.99
66312;HTU21D;53114;51.138;6.008;2022-10-18T07:20:17;16.91;118.99
66312;HTU21D;53114;51.138;6.008;2022-10-18T07:22:43;16.99;118.99
66312;HTU21D;53114;51.138;6.008;2022-10-18T07:25:09;17.05;118.99
66312;HTU21D;53114;51.138;6.008;2022-10-18T07:27:40;17.08;118.99
66312;HTU21D;53114;51.138;6.008;2022-10-18T07:30:08;17.07;118.99
66312;HTU21D;53114;51.138;6.008;2022-10-18T07:32:35;17.05;118.99
66312;HTU21D;53114;51.138;6.008;2022-10-18T07:35:02;17.09;118.99
66312;HTU21D;53114;51.138;6.008;2022-10-18T07:37:29;17.15;118.99
66312;HTU21D;53114;51.138;6.008;2022-10-18T07:39:54;17.19;118.99
66312;HTU21D;53114;51.138;6.008;2022-10-18T07:42:20;17.26;118.99
66312;HTU21D;53114;51.138;6.008;2022-10-18T07:44:49;17.36;118.99
66312;HTU21D;53114;51.138;6.008;2022-10-18T07:47:15;17.46;118.99
66312;HTU21D;53114;51.138;6.008;2022-10-18T07:49:41;17.50;118.99
66312;HTU21D;53114;51.138;6.008;2022-10-18T07:52:07;17.52;118.99
66312;HTU21D;53114;51.138;6.008;2022-10-18T07:54:33;17.54;118.99
66312;HTU21D;53114;51.138;6.008;2022-10-18T07:56:59;17.58;118.99
66312;HTU21D;53114;51.138;6.008;2022-10-18T07:59:24;17.58;118.99
66312;HTU21D;53114;51.138;6.008;2022-10-18T08:01:50;17.61;118.99
66312;HTU21D;53114;51.138;6.008;2022-10-18T08:04:16;17.65;118.99
66312;HTU21D;53114;51.138;6.008;2022-10-18T08:06:42;17.69;118.99
66312;HTU21D;53114;51.138;6.008;2022-10-18T08:09:08;17.72;118.99
66312;HTU21D;53114;51.138;6.008;2022-10-18T08:11:34;17.76;118.99
66312;HTU21D;53114;51.138;6.008;2022-10-18T08:14:00;17.79;118.99
66312;HTU21D;53114;51.138;6.008;2022-10-18T08:16:27;17.81;118.99
66312;HTU21D;53114;51.138;6.008;2022-10-18T08:18:56;17.83;118.99
66312;HTU21D;53114;51.138;6.008;2022-10-18T08:21:22;17.78;118.99
66312;HTU21D;53114;51.138;6.008;2022-10-18T08:23:49;17.75;118.99
66312;HTU21D;53114;51.138;6.008;2022-10-18T08:26:17;17.81;118.99
66312;HTU21D;53114;51.138;6.008;2022-10-18T08:28:44;17.88;118.99
66312;HTU21D;53114;51.138;6.008;2022-10-18T08:31:13;17.95;118.99
66312;HTU21D;53114;51.138;6.008;2022-10-18T08:33:39;17.95;118.99
66312;HTU21D;53114;51.138;6.008;2022-10-18T08:36:07;17.92;118.99
66312;HTU21D;53114;51.138;6.008;2022-10-18T08:38:37;17.91;118.99
66312;HTU21D;53114;51.138;6.008;2022-10-18T08:46:38;18.10;118.99
66312;HTU21D;53114;51.138;6.008;2022-10-18T08:49:21;18.20;118.99
66312;HTU21D;53114;51.138;6.008;2022-10-18T08:51:50;18.26;118.99
66312;HTU21D;53114;51.138;6.008;2022-10-18T08:57:01;18.29;118.99
66312;HTU21D;53114;51.138;6.008;2022-10-18T08:59:40;18.29;118.99
66312;HTU21D;53114;51.138;6.008;2022-10-18T09:13:49;18.33;118.99
66312;HTU21D;53114;51.138;6.008;2022-10-18T09:19:19;18.17;118.99
66312;HTU21D;53114;51.138;6.008;2022-10-18T09:22:11;18.12;118.99
66312;HTU21D;53114;51.138;6.008;2022-10-18T09:24:40;18.02;118.99
66312;HTU21D;53114;51.138;6.008;2022-10-18T09:27:20;17.95;118.99
66312;HTU21D;53114;51.138;6.008;2022-10-18T09:35:15;17.98;118.99
66312;HTU21D;53114;51.138;6.008;2022-10-18T09:37:44;18.00;118.99
66312;HTU21D;53114;51.138;6.008;2022-10-18T09:40:29;18.02;118.99
66312;HTU21D;53114;51.138;6.008;2022-10-18T09:43:16;18.03;118.99
66312;HTU21D;53114;51.138;6.008;2022-10-18T09:45:47;18.05;118.99
66312;HTU21D;53114;51.138;6.008;2022-10-18T09:48:27;18.10;118.99
66312;HTU21D;53114;51.138;6.008;2022-10-18T09:56:18;18.15;118.99
66312;HTU21D;53114;51.138;6.008;2022-10-18T09:58:48;18.08;118.99
66312;HTU21D;53114;51.138;6.008;2022-10-18T10:01:24;18.06;118.99
66312;HTU21D;53114;51.138;6.008;2022-10-18T10:03:51;18.08;118.99
66312;HTU21D;53114;51.138;6.008;2022-10-18T10:06:27;18.11;118.99
66312;HTU21D;53114;51.138;6.008;2022-10-18T10:08:59;18.18;118.99
66312;HTU21D;53114;51.138;6.008;2022-10-18T10:11:29;18.25;118.99
66312;HTU21D;53114;51.138;6.008;2022-10-18T10:14:00;18.28;118.99
66312;HTU21D;53114;51.138;6.008;2022-10-18T10:16:31;18.26;118.99
66312;HTU21D;53114;51.138;6.008;2022-10-18T10:18:57;18.23;118.99
66312;HTU21D;53114;51.138;6.008;2022-10-18T10:21:23;18.18;118.99
66312;HTU21D;53114;51.138;6.008;2022-10-18T10:23:56;18.13;118.99
66312;HTU21D;53114;51.138;6.008;2022-10-18T10:26:28;18.14;118.99
66312;HTU21D;53114;51.138;6.008;2022-10-18T10:28:55;18.12;118.99
66312;HTU21D;53114;51.138;6.008;2022-10-18T10:31:26;18.10;118.99
66312;HTU21D;53114;51.138;6.008;2022-10-18T10:36:31;18.05;118.99
66312;HTU21D;53114;51.138;6.008;2022-10-18T10:39:15;18.11;118.99
66312;HTU21D;53114;51.138;6.008;2022-10-18T10:41:59;18.22;118.99
66312;HTU21D;53114;51.138;6.008;2022-10-18T10:44:35;18.24;118.99
66312;HTU21D;53114;51.138;6.008;2022-10-18T10:47:02;18.21;118.99
66312;HTU21D;53114;51.138;6.008;2022-10-18T10:49:42;18.23;118.99
66312;HTU21D;53114;51.138;6.008;2022-10-18T10:52:23;18.37;118.99
66312;HTU21D;53114;51.138;6.008;2022-10-18T10:54:53;18.48;118.99
66312;HTU21D;53114;51.138;6.008;2022-10-18T10:57:25;18.54;118.99
66312;HTU21D;53114;51.138;6.008;2022-10-18T10:59:57;18.65;118.99
66312;HTU21D;53114;51.138;6.008;2022-10-18T11:02:33;18.73;118.99
66312;HTU21D;53114;51.138;6.008;2022-10-18T11:05:23;18.83;118.99
66312;HTU21D;53114;51.138;6.008;2022-10-18T11:07:54;19.01;118.99
66312;HTU21D;53114;51.138;6.008;2022-10-18T11:10:30;19.32;118.99
66312;HTU21D;53114;51.138;6.008;2022-10-18T11:15:53;19.52;118.99
66312;HTU21D;53114;51.138;6.008;2022-10-18T11:18:36;19.32;118.99
66312;HTU21D;53114;51.138;6.008;2022-10-18T11:21:23;19.29;118.99
66312;HTU21D;53114;51.138;6.008;2022-10-18T11:23:50;19.26;118.99
66312;HTU21D;53114;51.138;6.008;2022-10-18T11:26:45;19.26;118.99
66312;HTU21D;53114;51.138;6.008;2022-10-18T11:32:57;19.26;118.99
66312;HTU21D;53114;51.138;6.008;2022-10-18T11:38:27;19.14;118.99
66312;HTU21D;53114;51.138;6.008;2022-10-18T11:41:09;19.05;118.99
66312;HTU21D;53114;51.138;6.008;2022-10-18T11:43:58;18.92;118.99
66312;HTU21D;53114;51.138;6.008;2022-10-18T11:52:40;18.59;118.99
66312;HTU21D;53114;51.138;6.008;2022-10-18T12:01:05;18.39;118.99
66312;HTU21D;53114;51.138;6.008;2022-10-18T12:06:21;18.35;118.99
66312;HTU21D;53114;51.138;6.008;2022-10-18T12:08:54;18.39;118.99
66312;HTU21D;53114;51.138;6.008;2022-10-18T12:11:33;18.43;118.99
66312;HTU21D;53114;51.138;6.008;2022-10-18T12:14:51;18.41;118.99
66312;HTU21D;53114;51.138;6.008;2022-10-18T12:19:49;18.69;118.99
66312;HTU21D;53114;51.138;6.008;2022-10-18T12:22:31;18.91;118.99
66312;HTU21D;53114;51.138;6.008;2022-10-18T12:24:59;19.14;118.99
66312;HTU21D;53114;51.138;6.008;2022-10-18T12:27:38;19.35;118.99
66312;HTU21D;53114;51.138;6.008;2022-10-18T12:30:19;19.51;118.99
66312;HTU21D;53114;51.138;6.008;2022-10-18T12:32:49;19.52;118.99
66312;HTU21D;53114;51.138;6.008;2022-10-18T12:35:20;19.37;118.99
66312;HTU21D;53114;51.138;6.008;2022-10-18T12:38:13;19.23;118.99
66312;HTU21D;53114;51.138;6.008;2022-10-18T12:40:48;19.10;118.99
66312;HTU21D;53114;51.138;6.008;2022-10-18T12:43:34;19.03;118.99
66312;HTU21D;53114;51.138;6.008;2022-10-18T12:46:05;18.84;118.99
66312;HTU21D;53114;51.138;6.008;2022-10-18T12:48:35;18.68;118.99
66312;HTU21D;53114;51.138;6.008;2022-10-18T12:51:16;18.53;118.99
66312;HTU21D;53114;51.138;6.008;2022-10-18T12:53:49;18.41;118.99
66312;HTU21D;53114;51.138;6.008;2022-10-18T13:09:38;18.13;118.99
66312;HTU21D;53114;51.138;6.008;2022-10-18T13:20:43;17.95;118.99
66312;HTU21D;53114;51.138;6.008;2022-10-18T13:26:22;17.96;118.99
66312;HTU21D;53114;51.138;6.008;2022-10-18T13:34:34;17.73;118.99
66312;HTU21D;53114;51.138;6.008;2022-10-18T13:39:37;17.74;118.99
66312;HTU21D;53114;51.138;6.008;2022-10-18T13:44:43;17.81;118.99
66312;HTU21D;53114;51.138;6.008;2022-10-18T13:47:23;17.83;118.99
66312;HTU21D;53114;51.138;6.008;2022-10-18T13:50:16;17.91;118.99
66312;HTU21D;53114;51.138;6.008;2022-10-18T13:56:00;17.92;118.99
66312;HTU21D;53114;51.138;6.008;2022-10-18T13:58:50;17.93;118.99
66312;HTU21D;53114;51.138;6.008;2022-10-18T14:01:24;17.95;118.99
66312;HTU21D;53114;51.138;6.008;2022-10-18T14:06:46;17.91;118.99
66312;HTU21D;53114;51.138;6.008;2022-10-18T14:09:23;17.93;118.99
66312;HTU21D;53114;51.138;6.008;2022-10-18T14:11:58;17.88;118.99
66312;HTU21D;53114;51.138;6.008;2022-10-18T14:14:40;17.83;118.99
66312;HTU21D;53114;51.138;6.008;2022-10-18T14:17:34;17.80;118.99
66312;HTU21D;53114;51.138;6.008;2022-10-18T14:20:17;17.74;118.99
66312;HTU21D;53114;51.138;6.008;2022-10-18T14:25:37;17.74;118.99
66312;HTU21D;53114;51.138;6.008;2022-10-18T14:28:17;17.78;118.99
66312;HTU21D;53114;51.138;6.008;2022-10-18T14:30:58;17.82;118.99
66312;HTU21D;53114;51.138;6.008;2022-10-18T14:33:45;17.93;118.99
66312;HTU21D;53114;51.138;6.008;2022-10-18T14:36:22;17.96;118.99
66312;HTU21D;53114;51.138;6.008;2022-10-18T14:41:22;18.00;118.99
66312;HTU21D;53114;51.138;6.008;2022-10-18T14:43:50;18.09;118.99
66312;HTU21D;53114;51.138;6.008;2022-10-18T14:46:23;18.15;118.99
66312;HTU21D;53114;51.138;6.008;2022-10-18T14:48:52;18.21;118.99
66312;HTU21D;53114;51.138;6.008;2022-10-18T14:51:20;18.28;118.99
66312;HTU21D;53114;51.138;6.008;2022-10-18T14:53:47;18.34;118.99
66312;HTU21D;53114;51.138;6.008;2022-10-18T14:56:29;18.39;118.99
66312;HTU21D;53114;51.138;6.008;2022-10-18T14:58:59;18.46;118.99
66312;HTU21D;53114;51.138;6.008;2022-10-18T15:01:32;18.48;118.99
66312;HTU21D;53114;51.138;6.008;2022-10-18T15:04:10;18.47;118.99
66312;HTU21D;53114;51.138;6.008;2022-10-18T15:06:41;18.42;118.99
66312;HTU21D;53114;51.138;6.008;2022-10-18T15:09:10;18.34;118.99
66312;HTU21D;53114;51.138;6.008;2022-10-18T15:11:40;18.33;118.99
66312;HTU21D;53114;51.138;6.008;2022-10-18T15:14:13;18.32;118.99
66312;HTU21D;53114;51.138;6.008;2022-10-18T15:16:41;18.33;118.99
66312;HTU21D;53114;51.138;6.008;2022-10-18T15:26:55;17.98;118.99
66312;HTU21D;53114;51.138;6.008;2022-10-18T15:29:25;17.93;118.99
66312;HTU21D;53114;51.138;6.008;2022-10-18T15:31:52;17.85;118.99
66312;HTU21D;53114;51.138;6.008;2022-10-18T15:34:22;17.75;118.99
66312;HTU21D;53114;51.138;6.008;2022-10-18T15:36:51;17.61;118.99
66312;HTU21D;53114;51.138;6.008;2022-10-18T15:39:24;17.49;118.99
66312;HTU21D;53114;51.138;6.008;2022-10-18T15:41:59;17.37;118.99
66312;HTU21D;53114;51.138;6.008;2022-10-18T15:44:49;17.24;118.99
66312;HTU21D;53114;51.138;6.008;2022-10-18T15:47:19;17.18;118.99
66312;HTU21D;53114;51.138;6.008;2022-10-18T15:49:51;17.13;118.99
66312;HTU21D;53114;51.138;6.008;2022-10-18T15:52:38;17.06;118.99
66312;HTU21D;53114;51.138;6.008;2022-10-18T15:55:41;16.93;118.99
66312;HTU21D;53114;51.138;6.008;2022-10-18T15:58:37;16.86;118.99
66312;HTU21D;53114;51.138;6.008;2022-10-18T16:01:15;16.80;118.99
66312;HTU21D;53114;51.138;6.008;2022-10-18T16:03:43;16.76;118.99
66312;HTU21D;53114;51.138;6.008;2022-10-18T16:06:11;16.72;118.99
66312;HTU21D;53114;51.138;6.008;2022-10-18T16:08:40;16.70;118.99
66312;HTU21D;53114;51.138;6.008;2022-10-18T16:11:18;16.65;118.99
66312;HTU21D;53114;51.138;6.008;2022-10-18T16:13:44;16.63;118.99
66312;HTU21D;53114;51.138;6.008;2022-10-18T16:16:18;16.60;118.99
66312;HTU21D;53114;51.138;6.008;2022-10-18T16:18:47;16.56;118.99
66312;HTU21D;53114;51.138;6.008;2022-10-18T16:21:26;16.45;118.99
66312;HTU21D;53114;51.138;6.008;2022-10-18T16:23:52;16.34;118.99
66312;HTU21D;53114;51.138;6.008;2022-10-18T16:26:20;16.28;118.99
66312;HTU21D;53114;51.138;6.008;2022-10-18T16:28:47;16.19;118.99
66312;HTU21D;53114;51.138;6.008;2022-10-18T16:31:17;16.12;118.99
66312;HTU21D;53114;51.138;6.008;2022-10-18T16:33:44;16.03;118.99
66312;HTU21D;53114;51.138;6.008;2022-10-18T16:36:17;15.96;118.99
66312;HTU21D;53114;51.138;6.008;2022-10-18T16:38:44;15.81;118.99
66312;HTU21D;53114;51.138;6.008;2022-10-18T16:41:11;15.63;118.99
66312;HTU21D;53114;51.138;6.008;2022-10-18T16:43:42;15.61;118.99
66312;HTU21D;53114;51.138;6.008;2022-10-18T16:46:14;15.55;118.99
66312;HTU21D;53114;51.138;6.008;2022-10-18T16:48:41;15.44;118.99
66312;HTU21D;53114;51.138;6.008;2022-10-18T16:51:08;15.40;118.99
66312;HTU21D;53114;51.138;6.008;2022-10-18T16:53:35;15.34;118.99
66312;HTU21D;53114;51.138;6.008;2022-10-18T16:56:04;15.28;118.99
66312;HTU21D;53114;51.138;6.008;2022-10-18T16:58:32;15.22;118.99
66312;HTU21D;53114;51.138;6.008;2022-10-18T17:00:58;15.16;118.99
66312;HTU21D;53114;51.138;6.008;2022-10-18T17:03:25;15.07;118.99
66312;HTU21D;53114;51.138;6.008;2022-10-18T17:05:54;14.99;118.99
66312;HTU21D;53114;51.138;6.008;2022-10-18T17:08:23;14.96;118.99
66312;HTU21D;53114;51.138;6.008;2022-10-18T17:10:51;14.92;118.99
66312;HTU21D;53114;51.138;6.008;2022-10-18T17:13:19;14.87;118.99
66312;HTU21D;53114;51.138;6.008;2022-10-18T17:15:45;14.81;118.99
66312;HTU21D;53114;51.138;6.008;2022-10-18T17:18:20;14.74;118.99
66312;HTU21D;53114;51.138;6.008;2022-10-18T17:20:47;14.72;118.99
66312;HTU21D;53114;51.138;6.008;2022-10-18T17:23:14;14.73;118.99
66312;HTU21D;53114;51.138;6.008;2022-10-18T17:25:41;14.71;118.99
66312;HTU21D;53114;51.138;6.008;2022-10-18T17:28:15;14.66;118.99
66312;HTU21D;53114;51.138;6.008;2022-10-18T17:30:43;14.58;118.99
66312;HTU21D;53114;51.138;6.008;2022-10-18T17:33:09;14.49;118.99
66312;HTU21D;53114;51.138;6.008;2022-10-18T17:35:37;14.40;118.99
66312;HTU21D;53114;51.138;6.008;2022-10-18T17:38:04;14.36;118.99
66312;HTU21D;53114;51.138;6.008;2022-10-18T17:40:31;14.25;118.99
66312;HTU21D;53114;51.138;6.008;2022-10-18T17:42:58;14.19;118.99
66312;HTU21D;53114;51.138;6.008;2022-10-18T17:45:24;14.15;118.99
66312;HTU21D;53114;51.138;6.008;2022-10-18T17:47:51;14.13;118.99
66312;HTU21D;53114;51.138;6.008;2022-10-18T17:50:17;14.08;118.99